createdAt,value
2022-12-17T00:01:22.813Z,-3.12
2022-12-17T00:03:49.293Z,-3.15
2022-12-17T00:06:15.808Z,-3.20
2022-12-17T00:08:42.195Z,-3.22
2022-12-17T00:11:08.631Z,-3.18
2022-12-17T00:13:35.295Z,-3.11
2022-12-17T00:16:02.044Z,-3.16
2022-12-17T00:18:28.488Z,-3.28
2022-12-17T00:20:55.747Z,-3.34
2022-12-17T00:23:22.857Z,-3.38
2022-12-17T00:25:52.954Z,-3.38
2022-12-17T00:28:19.211Z,-3.33
2022-12-17T00:30:51.450Z,-3.35
2022-12-17T00:33:18.569Z,-3.35
2022-12-17T00:35:50.977Z,-3.38
2022-12-17T00:38:17.951Z,-3.38
2022-12-17T00:40:44.363Z,-3.40
2022-12-17T00:43:12.248Z,-3.42
2022-12-17T00:45:38.654Z,-3.46
2022-12-17T00:48:05.137Z,-3.50
2022-12-17T00:50:31.532Z,-3.55
2022-12-17T00:52:57.915Z,-3.60
2022-12-17T00:55:24.283Z,-3.67
2022-12-17T00:57:54.807Z,-3.72
2022-12-17T01:00:22.687Z,-3.72
2022-12-17T01:02:49.192Z,-3.70
2022-12-17T01:05:15.633Z,-3.66
2022-12-17T01:07:42.031Z,-3.67
2022-12-17T01:10:08.546Z,-3.67
2022-12-17T01:12:34.955Z,-3.69
2022-12-17T01:15:01.356Z,-3.65
2022-12-17T01:17:27.768Z,-3.68
2022-12-17T01:19:54.161Z,-3.69
2022-12-17T01:22:22.823Z,-3.73
2022-12-17T01:24:49.230Z,-3.74
2022-12-17T01:27:15.732Z,-3.76
2022-12-17T01:29:42.137Z,-3.78
2022-12-17T01:32:08.553Z,-3.80
2022-12-17T01:34:34.989Z,-3.76
2022-12-17T01:37:01.387Z,-3.69
2022-12-17T01:39:27.765Z,-3.71
2022-12-17T01:41:54.164Z,-3.73
2022-12-17T01:44:41.624Z,-3.74
2022-12-17T01:47:08.027Z,-3.72
2022-12-17T01:49:34.406Z,-3.68
2022-12-17T01:52:00.871Z,-3.67
2022-12-17T01:54:27.259Z,-3.61
2022-12-17T01:56:53.666Z,-3.68
2022-12-17T01:59:21.717Z,-3.71
2022-12-17T02:01:48.163Z,-3.74
2022-12-17T02:04:14.707Z,-3.73
2022-12-17T02:06:43.497Z,-3.74
2022-12-17T02:09:33.891Z,-3.81
2022-12-17T02:12:18.486Z,-3.85
2022-12-17T02:14:47.598Z,-3.89
2022-12-17T02:17:15.947Z,-3.89
2022-12-17T02:19:45.797Z,-3.87
2022-12-17T02:22:41.495Z,-3.79
2022-12-17T02:25:21.435Z,-3.81
2022-12-17T02:27:47.838Z,-3.86
2022-12-17T02:30:14.236Z,-3.91
2022-12-17T02:32:41.658Z,-3.89
2022-12-17T02:35:19.210Z,-3.92
2022-12-17T02:37:49.532Z,-3.97
2022-12-17T02:40:16.812Z,-3.98
2022-12-17T02:42:43.383Z,-4.04
2022-12-17T02:45:09.861Z,-4.04
2022-12-17T02:47:36.234Z,-4.05
2022-12-17T02:50:02.642Z,-4.08
2022-12-17T02:52:34.585Z,-4.09
2022-12-17T02:55:01.373Z,-4.08
2022-12-17T02:57:27.761Z,-4.09
2022-12-17T02:59:54.137Z,-4.16
2022-12-17T03:02:20.670Z,-4.09
2022-12-17T03:04:47.146Z,-4.11
2022-12-17T03:07:13.561Z,-4.12
2022-12-17T03:09:39.974Z,-4.18
2022-12-17T03:12:06.411Z,-4.20
2022-12-17T03:14:32.837Z,-4.19
2022-12-17T03:16:59.334Z,-4.24
2022-12-17T03:19:25.744Z,-4.26
2022-12-17T03:21:52.129Z,-4.30
2022-12-17T03:24:18.542Z,-4.32
2022-12-17T03:26:44.928Z,-4.34
2022-12-17T03:29:11.330Z,-4.33
2022-12-17T03:31:37.768Z,-4.35
2022-12-17T03:34:04.227Z,-4.31
2022-12-17T03:36:30.830Z,-4.28
2022-12-17T03:38:57.218Z,-4.26
2022-12-17T03:41:23.668Z,-4.22
2022-12-17T03:43:50.051Z,-4.16
2022-12-17T03:46:16.531Z,-4.14
2022-12-17T03:48:42.928Z,-4.11
2022-12-17T03:51:09.331Z,-4.12
2022-12-17T03:53:36.080Z,-4.02
2022-12-17T03:56:02.655Z,-3.95
2022-12-17T03:58:29.054Z,-3.93
2022-12-17T04:00:55.434Z,-3.92
2022-12-17T04:03:21.928Z,-3.89
2022-12-17T04:05:48.354Z,-3.85
2022-12-17T04:08:14.762Z,-3.85
2022-12-17T04:10:41.219Z,-3.87
2022-12-17T04:13:07.621Z,-3.88
2022-12-17T04:15:34.219Z,-3.87
2022-12-17T04:18:00.664Z,-3.93
2022-12-17T04:20:27.041Z,-3.99
2022-12-17T04:22:53.427Z,-4.05
2022-12-17T04:25:19.835Z,-4.13
2022-12-17T04:27:46.214Z,-4.19
2022-12-17T04:30:12.634Z,-4.20
2022-12-17T04:32:39.019Z,-4.24
2022-12-17T04:35:05.545Z,-4.27
2022-12-17T04:37:31.968Z,-4.22
2022-12-17T04:39:58.352Z,-4.13
2022-12-17T04:42:24.750Z,-4.13
2022-12-17T04:44:51.127Z,-4.11
2022-12-17T04:47:17.510Z,-4.12
2022-12-17T04:49:43.876Z,-4.10
2022-12-17T04:52:10.281Z,-4.08
2022-12-17T04:54:36.660Z,-4.13
2022-12-17T04:57:03.062Z,-4.15
2022-12-17T04:59:29.463Z,-4.18
2022-12-17T05:01:55.922Z,-4.20
2022-12-17T05:04:22.457Z,-4.16
2022-12-17T05:06:48.865Z,-4.12
2022-12-17T05:09:15.263Z,-4.08
2022-12-17T05:11:41.643Z,-4.10
2022-12-17T05:14:08.051Z,-4.10
2022-12-17T05:16:34.601Z,-4.04
2022-12-17T05:19:01.026Z,-4.02
2022-12-17T05:21:31.980Z,-4.00
2022-12-17T05:23:59.830Z,-3.91
2022-12-17T05:26:27.282Z,-3.87
2022-12-17T05:28:53.661Z,-3.82
2022-12-17T05:31:20.132Z,-3.79
2022-12-17T05:33:46.530Z,-3.76
2022-12-17T05:36:12.923Z,-3.73
2022-12-17T05:38:39.302Z,-3.72
2022-12-17T05:41:05.687Z,-3.70
2022-12-17T05:43:32.085Z,-3.69
2022-12-17T05:45:58.475Z,-3.71
2022-12-17T05:48:24.873Z,-3.72
2022-12-17T05:50:51.271Z,-3.75
2022-12-17T05:53:17.666Z,-3.77
2022-12-17T05:55:48.710Z,-3.78
2022-12-17T05:58:15.130Z,-3.75
2022-12-17T06:00:41.523Z,-3.75
2022-12-17T06:03:08.954Z,-3.76
2022-12-17T06:05:35.471Z,-3.74
2022-12-17T06:08:05.757Z,-3.73
2022-12-17T06:10:32.172Z,-3.72
2022-12-17T06:12:58.540Z,-3.73
2022-12-17T06:15:24.936Z,-3.75
2022-12-17T06:17:54.935Z,-3.76
2022-12-17T06:20:21.349Z,-3.75
2022-12-17T06:22:47.724Z,-3.74
2022-12-17T06:25:14.175Z,-3.74
2022-12-17T06:27:40.582Z,-3.77
2022-12-17T06:30:07.347Z,-3.77
2022-12-17T06:32:33.769Z,-3.76
2022-12-17T06:35:00.149Z,-3.79
2022-12-17T06:37:26.638Z,-3.83
2022-12-17T06:39:53.082Z,-3.82
2022-12-17T06:42:19.499Z,-3.82
2022-12-17T06:44:45.941Z,-3.81
2022-12-17T06:47:12.404Z,-3.86
2022-12-17T06:49:38.855Z,-3.90
2022-12-17T06:52:05.238Z,-3.93
2022-12-17T06:54:31.643Z,-3.95
2022-12-17T06:56:58.029Z,-3.97
2022-12-17T06:59:24.429Z,-3.99
2022-12-17T07:01:50.967Z,-4.00
2022-12-17T07:04:17.852Z,-4.05
2022-12-17T07:06:44.250Z,-4.06
2022-12-17T07:09:10.642Z,-4.11
2022-12-17T07:11:37.067Z,-4.17
2022-12-17T07:14:03.552Z,-4.19
2022-12-17T07:16:30.041Z,-4.23
2022-12-17T07:18:56.452Z,-4.28
2022-12-17T07:21:22.863Z,-4.29
2022-12-17T07:23:49.259Z,-4.34
2022-12-17T07:26:15.652Z,-4.38
2022-12-17T07:28:42.061Z,-4.42
2022-12-17T07:31:08.438Z,-4.42
2022-12-17T07:33:35.127Z,-4.38
2022-12-17T07:36:01.709Z,-4.36
2022-12-17T07:38:28.123Z,-4.35
2022-12-17T07:40:54.508Z,-4.37
2022-12-17T07:43:20.882Z,-4.37
2022-12-17T07:45:47.328Z,-4.38
2022-12-17T07:48:16.355Z,-4.35
2022-12-17T07:50:43.037Z,-4.38
2022-12-17T07:53:09.979Z,-4.37
2022-12-17T07:55:36.507Z,-4.34
2022-12-17T07:58:04.812Z,-4.28
2022-12-17T08:00:32.358Z,-4.22
2022-12-17T08:02:59.537Z,-4.12
2022-12-17T08:05:26.255Z,-4.03
2022-12-17T08:07:52.676Z,-3.95
2022-12-17T08:10:19.070Z,-3.83
2022-12-17T08:12:55.503Z,-3.77
2022-12-17T08:15:21.889Z,-3.72
2022-12-17T08:17:48.310Z,-3.65
2022-12-17T08:20:14.746Z,-3.61
2022-12-17T08:22:41.170Z,-3.60
2022-12-17T08:25:07.959Z,-3.57
2022-12-17T08:27:34.353Z,-3.51
2022-12-17T08:30:01.906Z,-3.50
2022-12-17T08:32:28.299Z,-3.44
2022-12-17T08:34:54.702Z,-3.40
2022-12-17T08:37:21.085Z,-3.37
2022-12-17T08:39:47.586Z,-3.36
2022-12-17T08:42:14.506Z,-3.32
2022-12-17T08:44:40.926Z,-3.30
2022-12-17T08:47:07.328Z,-3.27
2022-12-17T08:49:33.754Z,-3.20
2022-12-17T08:52:00.367Z,-3.15
2022-12-17T08:54:26.859Z,-3.14
2022-12-17T08:56:53.276Z,-3.15
2022-12-17T08:59:20.522Z,-3.11
2022-12-17T09:01:47.017Z,-3.08
2022-12-17T09:04:13.510Z,-3.03
2022-12-17T09:06:39.922Z,-3.03
2022-12-17T09:09:06.507Z,-3.04
2022-12-17T09:11:32.923Z,-2.99
2022-12-17T09:13:59.341Z,-3.01
2022-12-17T09:16:25.764Z,-3.03
2022-12-17T09:18:52.191Z,-3.01
2022-12-17T09:21:18.578Z,-3.02
2022-12-17T09:23:44.969Z,-3.05
2022-12-17T09:26:11.401Z,-3.08
2022-12-17T09:28:37.770Z,-3.05
2022-12-17T09:31:04.263Z,-3.02
2022-12-17T09:33:30.737Z,-3.01
2022-12-17T09:35:57.138Z,-3.04
2022-12-17T09:38:23.528Z,-3.00
2022-12-17T09:40:50.538Z,-3.01
2022-12-17T09:43:30.001Z,-3.03
2022-12-17T09:46:05.466Z,-3.05
2022-12-17T09:48:37.761Z,-3.08
2022-12-17T09:51:04.377Z,-3.05
2022-12-17T09:53:44.426Z,-3.03
2022-12-17T09:56:11.694Z,-3.04
2022-12-17T09:58:40.628Z,-3.00
2022-12-17T10:01:13.902Z,-3.00
2022-12-17T10:03:40.874Z,-2.98
2022-12-17T10:06:13.466Z,-3.04
2022-12-17T10:08:42.278Z,-2.95
2022-12-17T10:11:20.898Z,-2.92
2022-12-17T10:13:47.273Z,-2.85
2022-12-17T10:16:29.177Z,-2.89
2022-12-17T10:18:57.037Z,-2.92
2022-12-17T10:21:23.465Z,-2.86
2022-12-17T10:23:49.881Z,-2.85
2022-12-17T10:26:17.696Z,-2.81
2022-12-17T10:28:44.105Z,-2.80
2022-12-17T10:31:19.036Z,-2.77
2022-12-17T10:33:45.535Z,-2.68
2022-12-17T10:36:22.506Z,-2.69
2022-12-17T10:38:54.094Z,-2.65
2022-12-17T10:41:28.294Z,-2.58
2022-12-17T10:43:54.698Z,-2.56
2022-12-17T10:46:28.617Z,-2.53
2022-12-17T10:49:24.766Z,-2.48
2022-12-17T10:51:51.144Z,-2.41
2022-12-17T10:54:24.623Z,-2.39
2022-12-17T10:56:53.037Z,-2.34
2022-12-17T10:59:32.302Z,-2.34
2022-12-17T11:01:58.998Z,-2.33
2022-12-17T11:04:27.834Z,-2.30
2022-12-17T11:06:54.242Z,-2.25
2022-12-17T11:09:29.833Z,-2.14
2022-12-17T11:11:56.270Z,-2.13
2022-12-17T11:14:23.592Z,-2.08
2022-12-17T11:16:52.995Z,-2.04
2022-12-17T11:19:40.653Z,-1.97
2022-12-17T11:22:34.985Z,-1.96
2022-12-17T11:25:29.628Z,-1.94
2022-12-17T11:28:05.329Z,-1.82
2022-12-17T11:30:34.204Z,-1.80
2022-12-17T11:33:09.139Z,-1.79
2022-12-17T11:35:45.018Z,-1.75
2022-12-17T11:38:24.685Z,-1.71
2022-12-17T11:41:18.496Z,-1.65
2022-12-17T11:44:07.216Z,-1.59
2022-12-17T11:46:40.593Z,-1.52
2022-12-17T11:49:48.636Z,-1.41
2022-12-17T11:52:32.956Z,-1.40
2022-12-17T11:55:06.838Z,-1.36
2022-12-17T11:57:43.747Z,-1.29
2022-12-17T12:00:16.851Z,-1.25
2022-12-17T12:03:34.153Z,-1.23
2022-12-17T12:06:00.956Z,-1.19
2022-12-17T12:08:28.994Z,-1.13
2022-12-17T12:11:02.421Z,-1.07
2022-12-17T12:13:43.108Z,-0.96
2022-12-17T12:16:35.406Z,-0.89
2022-12-17T12:19:06.308Z,-0.82
2022-12-17T12:21:37.961Z,-0.74
2022-12-17T12:24:39.558Z,-0.68
2022-12-17T12:27:20.609Z,-0.60
2022-12-17T12:30:00.155Z,-0.56
2022-12-17T12:32:50.928Z,-0.52
2022-12-17T12:35:20.083Z,-0.48
2022-12-17T12:37:46.492Z,-0.42
2022-12-17T12:40:33.635Z,-0.43
2022-12-17T12:43:04.785Z,-0.52
2022-12-17T12:45:54.390Z,-0.51
2022-12-17T12:48:36.169Z,-0.47
2022-12-17T12:51:03.735Z,-0.40
2022-12-17T12:53:30.147Z,-0.39
2022-12-17T12:55:56.554Z,-0.36
2022-12-17T12:58:28.235Z,-0.30
2022-12-17T13:00:54.899Z,0.67
2022-12-17T13:03:30.432Z,4.45
2022-12-17T13:05:58.381Z,7.06
2022-12-17T13:08:24.774Z,7.35
2022-12-17T13:10:52.017Z,5.19
2022-12-17T13:13:18.315Z,3.67
2022-12-17T13:15:48.063Z,3.25
2022-12-17T13:18:28.992Z,2.63
2022-12-17T13:21:03.567Z,2.29
2022-12-17T13:23:36.828Z,1.60
2022-12-17T13:26:15.395Z,1.13
2022-12-17T13:28:41.818Z,0.62
2022-12-17T13:31:53.411Z,0.22
2022-12-17T13:34:36.506Z,-0.03
2022-12-17T13:37:13.426Z,-0.21
2022-12-17T13:39:45.971Z,-0.28
2022-12-17T13:42:25.796Z,-0.34
2022-12-17T13:44:55.657Z,-0.42
2022-12-17T13:47:24.734Z,-0.40
2022-12-17T13:50:24.560Z,-0.48
2022-12-17T13:52:38.751Z,-0.46
2022-12-17T13:55:10.075Z,-0.42
2022-12-17T13:57:37.403Z,-0.36
2022-12-17T14:00:04.405Z,-0.38
2022-12-17T14:02:36.970Z,-0.43
2022-12-17T14:05:08.007Z,-0.49
2022-12-17T14:07:37.727Z,-0.58
2022-12-17T14:10:04.504Z,-0.62
2022-12-17T14:12:30.952Z,-0.68
2022-12-17T14:15:04.686Z,-0.77
2022-12-17T14:17:47.490Z,-0.83
2022-12-17T14:20:15.917Z,-0.87
2022-12-17T14:22:53.781Z,-0.92
2022-12-17T14:25:41.221Z,-0.99
2022-12-17T14:28:23.586Z,-1.08
2022-12-17T14:31:24.942Z,-1.14
2022-12-17T14:33:37.541Z,-1.20
2022-12-17T14:36:06.369Z,-1.30
2022-12-17T14:38:42.028Z,-1.33
2022-12-17T14:41:12.515Z,-1.39
2022-12-17T14:43:38.919Z,-1.39
2022-12-17T14:46:05.466Z,-1.43
2022-12-17T14:48:31.904Z,-1.47
2022-12-17T14:50:58.324Z,-1.50
2022-12-17T14:53:26.473Z,-1.49
2022-12-17T14:55:55.666Z,-1.52
2022-12-17T14:58:23.107Z,-1.52
2022-12-17T15:00:54.236Z,-1.59
2022-12-17T15:03:32.072Z,-1.64
2022-12-17T15:06:02.904Z,-1.67
2022-12-17T15:08:37.262Z,-1.71
2022-12-17T15:11:03.887Z,-1.73
2022-12-17T15:13:30.313Z,-1.75
2022-12-17T15:15:57.509Z,-1.78
2022-12-17T15:18:25.181Z,-1.84
2022-12-17T15:20:54.587Z,-1.91
2022-12-17T15:23:22.014Z,-1.95
2022-12-17T15:25:49.312Z,-1.93
2022-12-17T15:28:16.609Z,-1.96
2022-12-17T15:30:43.142Z,-1.98
2022-12-17T15:33:17.413Z,-1.98
2022-12-17T15:35:45.220Z,-1.98
2022-12-17T15:38:11.918Z,-2.02
2022-12-17T15:40:38.350Z,-2.05
2022-12-17T15:43:06.522Z,-2.04
2022-12-17T15:45:33.030Z,-2.11
2022-12-17T15:47:59.441Z,-2.14
2022-12-17T15:50:25.813Z,-2.14
2022-12-17T15:52:52.213Z,-2.15
2022-12-17T15:55:18.590Z,-2.21
2022-12-17T15:57:45.006Z,-2.19
2022-12-17T16:00:11.862Z,-2.20
2022-12-17T16:02:38.449Z,-2.17
2022-12-17T16:05:05.899Z,-2.21
2022-12-17T16:07:32.287Z,-2.26
2022-12-17T16:10:04.559Z,-2.29
2022-12-17T16:12:31.728Z,-2.28
2022-12-17T16:14:58.134Z,-2.31
2022-12-17T16:17:24.525Z,-2.28
2022-12-17T16:19:50.946Z,-2.30
2022-12-17T16:22:17.343Z,-2.28
2022-12-17T16:24:45.487Z,-2.36
2022-12-17T16:27:11.878Z,-2.37
2022-12-17T16:29:40.637Z,-2.42
2022-12-17T16:32:07.030Z,-2.47
2022-12-17T16:34:33.442Z,-2.41
2022-12-17T16:36:59.826Z,-2.44
2022-12-17T16:39:28.302Z,-2.45
2022-12-17T16:41:54.696Z,-2.46
2022-12-17T16:44:21.108Z,-2.47
2022-12-17T16:46:47.526Z,-2.49
2022-12-17T16:49:17.874Z,-2.51
2022-12-17T16:51:45.420Z,-2.49
2022-12-17T16:54:16.412Z,-2.49
2022-12-17T16:56:43.258Z,-2.48
2022-12-17T16:59:10.040Z,-2.50
2022-12-17T17:01:36.877Z,-2.57
2022-12-17T17:04:04.361Z,-2.57
2022-12-17T17:06:33.867Z,-2.54
2022-12-17T17:09:03.617Z,-2.53
2022-12-17T17:11:30.006Z,-2.54
2022-12-17T17:13:56.402Z,-2.50
2022-12-17T17:16:23.622Z,-2.53
2022-12-17T17:18:52.745Z,-2.50
2022-12-17T17:21:25.287Z,-2.56
2022-12-17T17:24:01.300Z,-2.58
2022-12-17T17:26:28.587Z,-2.61
2022-12-17T17:28:54.993Z,-2.60
2022-12-17T17:31:26.627Z,-2.61
2022-12-17T17:33:57.094Z,-2.60
2022-12-17T17:36:29.405Z,-2.61
2022-12-17T17:39:02.469Z,-2.62
2022-12-17T17:41:30.404Z,-2.69
2022-12-17T17:44:01.179Z,-2.70
2022-12-17T17:46:28.406Z,-2.75
2022-12-17T17:48:57.486Z,-2.77
2022-12-17T17:51:59.937Z,-2.76
2022-12-17T17:54:14.701Z,-2.82
2022-12-17T17:56:43.979Z,-2.78
2022-12-17T17:59:14.915Z,-2.81
2022-12-17T18:01:43.600Z,-2.82
2022-12-17T18:04:13.734Z,-2.83
2022-12-17T18:06:45.655Z,-2.81
2022-12-17T18:09:19.988Z,-2.84
2022-12-17T18:11:46.415Z,-2.86
2022-12-17T18:14:12.850Z,-2.86
2022-12-17T18:16:40.927Z,-2.86
2022-12-17T18:19:07.253Z,-2.86
2022-12-17T18:21:33.709Z,-2.80
2022-12-17T18:24:02.299Z,-2.87
2022-12-17T18:26:30.129Z,-2.87
2022-12-17T18:28:56.795Z,-2.90
2022-12-17T18:31:24.499Z,-2.88
2022-12-17T18:33:58.563Z,-2.91
2022-12-17T18:36:26.972Z,-2.93
2022-12-17T18:39:12.921Z,-2.90
2022-12-17T18:41:39.591Z,-2.91
2022-12-17T18:44:06.306Z,-2.92
2022-12-17T18:46:33.102Z,-2.96
2022-12-17T18:49:02.112Z,-2.96
2022-12-17T18:51:28.865Z,-2.99
2022-12-17T18:53:59.434Z,-3.02
2022-12-17T18:56:52.520Z,-3.05
2022-12-17T18:59:13.382Z,-3.14
2022-12-17T19:01:40.073Z,-3.16
2022-12-17T19:04:08.164Z,-3.17
2022-12-17T19:06:35.005Z,-3.16
2022-12-17T19:09:01.703Z,-3.16
2022-12-17T19:11:28.302Z,-3.22
2022-12-17T19:13:54.688Z,-3.22
2022-12-17T19:16:22.791Z,-3.22
2022-12-17T19:19:03.461Z,-3.22
2022-12-17T19:21:30.271Z,-3.23
2022-12-17T19:23:58.087Z,-3.24
2022-12-17T19:26:24.570Z,-3.24
2022-12-17T19:28:55.056Z,-3.26
2022-12-17T19:31:22.487Z,-3.27
2022-12-17T19:33:49.018Z,-3.21
2022-12-17T19:36:17.252Z,-3.24
2022-12-17T19:38:43.783Z,-3.28
2022-12-17T19:41:14.611Z,-3.31
2022-12-17T19:43:44.991Z,-3.31
2022-12-17T19:46:16.176Z,-3.34
2022-12-17T19:48:48.151Z,-3.33
2022-12-17T19:51:16.575Z,-3.33
2022-12-17T19:53:43.745Z,-3.35
2022-12-17T19:56:15.687Z,-3.35
2022-12-17T19:58:42.293Z,-3.34
2022-12-17T20:01:10.185Z,-3.36
2022-12-17T20:03:36.739Z,-3.35
2022-12-17T20:06:03.509Z,-3.37
2022-12-17T20:08:30.683Z,-3.39
2022-12-17T20:10:57.283Z,-3.40
2022-12-17T20:13:24.071Z,-3.40
2022-12-17T20:16:08.031Z,-3.43
2022-12-17T20:18:34.496Z,-3.47
2022-12-17T20:21:04.239Z,-3.54
2022-12-17T20:23:30.980Z,-3.57
2022-12-17T20:26:08.067Z,-3.58
2022-12-17T20:28:34.503Z,-3.59
2022-12-17T20:31:01.603Z,-3.68
2022-12-17T20:33:28.024Z,-3.58
2022-12-17T20:35:54.615Z,-3.58
2022-12-17T20:38:21.088Z,-3.57
2022-12-17T20:40:47.474Z,-3.56
2022-12-17T20:43:13.884Z,-3.61
2022-12-17T20:45:47.417Z,-3.63
2022-12-17T20:48:13.900Z,-3.63
2022-12-17T20:50:40.275Z,-3.62
2022-12-17T20:53:06.916Z,-3.62
2022-12-17T20:55:33.298Z,-3.70
2022-12-17T20:57:59.722Z,-3.75
2022-12-17T21:00:26.136Z,-3.78
2022-12-17T21:02:52.651Z,-3.80
2022-12-17T21:05:19.182Z,-3.84
2022-12-17T21:07:45.585Z,-3.81
2022-12-17T21:10:12.187Z,-3.79
2022-12-17T21:12:38.571Z,-3.82
2022-12-17T21:15:05.208Z,-3.91
2022-12-17T21:17:31.591Z,-3.92
2022-12-17T21:20:01.535Z,-3.95
2022-12-17T21:22:32.435Z,-3.95
2022-12-17T21:24:58.818Z,-3.95
2022-12-17T21:27:25.211Z,-3.99
2022-12-17T21:29:52.894Z,-3.98
2022-12-17T21:32:19.708Z,-3.99
2022-12-17T21:34:46.163Z,-3.99
2022-12-17T21:37:12.586Z,-4.01
2022-12-17T21:39:39.008Z,-4.06
2022-12-17T21:42:05.436Z,-4.09
2022-12-17T21:44:31.870Z,-4.10
2022-12-17T21:46:58.309Z,-4.05
2022-12-17T21:49:24.863Z,-4.00
2022-12-17T21:51:51.582Z,-4.00
2022-12-17T21:54:19.962Z,-3.96
2022-12-17T21:56:46.940Z,-3.92
2022-12-17T21:59:13.309Z,-3.88
2022-12-17T22:01:39.767Z,-3.87
2022-12-17T22:04:06.279Z,-3.91
2022-12-17T22:06:37.911Z,-3.97
2022-12-17T22:09:27.169Z,-4.06
2022-12-17T22:12:01.259Z,-4.15
2022-12-17T22:14:27.708Z,-4.23
2022-12-17T22:16:54.504Z,-4.28
2022-12-17T22:19:22.805Z,-4.34
2022-12-17T22:21:49.989Z,-4.39
2022-12-17T22:24:18.320Z,-4.41
2022-12-17T22:26:44.848Z,-4.34
2022-12-17T22:29:11.348Z,-4.35
2022-12-17T22:31:37.805Z,-4.39
2022-12-17T22:34:40.777Z,-4.39
2022-12-17T22:38:39.696Z,-4.44
2022-12-17T22:42:29.322Z,-4.45
2022-12-17T22:44:37.338Z,-4.47
2022-12-17T22:45:12.252Z,-4.62
2022-12-17T22:47:39.240Z,-4.70
2022-12-17T22:50:06.139Z,-4.68
2022-12-17T22:52:33.144Z,-4.64
2022-12-17T22:54:59.837Z,-4.53
2022-12-17T22:57:35.687Z,-4.46
2022-12-17T23:00:14.019Z,-4.46
2022-12-17T23:02:40.479Z,-4.44
2022-12-17T23:05:07.122Z,-4.36
2022-12-17T23:07:33.536Z,-4.33
2022-12-17T23:09:59.966Z,-4.43
2022-12-17T23:12:26.415Z,-4.47
2022-12-17T23:14:52.848Z,-4.49
2022-12-17T23:17:19.239Z,-4.45
2022-12-17T23:19:45.674Z,-4.47
2022-12-17T23:22:12.081Z,-4.58
2022-12-17T23:24:38.550Z,-4.70
2022-12-17T23:27:04.950Z,-4.69
2022-12-17T23:29:31.333Z,-4.62
2022-12-17T23:31:57.730Z,-4.58
2022-12-17T23:34:24.094Z,-4.59
2022-12-17T23:36:50.498Z,-4.67
2022-12-17T23:39:16.940Z,-4.72
2022-12-17T23:41:43.389Z,-4.76
2022-12-17T23:44:09.777Z,-4.81
2022-12-17T23:46:36.259Z,-4.80
2022-12-17T23:49:04.408Z,-4.81
2022-12-17T23:51:30.860Z,-4.83
2022-12-17T23:53:58.697Z,-4.84
2022-12-17T23:56:26.086Z,-4.80
2022-12-17T23:58:59.848Z,-4.78
